Augusta, New Jersey
Current Conditions -  °F | °C
As of 4:53 PM on Friday 24 Oct 2014 (Local Time) from KFWN Reporting Station
Clear Clear  
Wind Chill: 69°   Ceiling: Unl
Heat Index: 69°   Visibility: 10mi
Dew Point: 41°   Wind: 3mph
Humidity: 36%   Direction: NA
Pressure: 29.78"   Gusts: NA
Location:  41.13°N, 74.73°W
Report Text: KFWN 242053Z AUTO VRB03KT 10SM CLR 21/05 A2978 RMK AO2 SLP082 T02060050 55004
Loading
Personal Weather Stations






























Interactive Weather Map New forecast layout! Learn more

10-Day Weather Forecast

Advertisements
Track Severe Weather on mobile